sensor_id;sensor_type;location;lat;lon;timestamp;P1;durP1;ratioP1;P2;durP2;ratioP2
72949;SDS011;64868;45.710;9.590;2022-11-09T00:01:29;10.68;;;5.32;;
72949;SDS011;64868;45.710;9.590;2022-11-09T00:03:55;11.02;;;4.97;;
72949;SDS011;64868;45.710;9.590;2022-11-09T00:06:21;10.10;;;4.45;;
72949;SDS011;64868;45.710;9.590;2022-11-09T00:08:46;11.43;;;4.78;;
72949;SDS011;64868;45.710;9.590;2022-11-09T00:11:12;11.03;;;5.80;;
72949;SDS011;64868;45.710;9.590;2022-11-09T00:13:37;10.35;;;4.70;;
72949;SDS011;64868;45.710;9.590;2022-11-09T00:16:03;9.90;;;4.70;;
72949;SDS011;64868;45.710;9.590;2022-11-09T00:18:29;10.23;;;4.82;;
72949;SDS011;64868;45.710;9.590;2022-11-09T00:20:54;12.35;;;4.88;;
72949;SDS011;64868;45.710;9.590;2022-11-09T00:23:20;9.60;;;4.55;;
72949;SDS011;64868;45.710;9.590;2022-11-09T00:25:45;10.55;;;4.95;;
72949;SDS011;64868;45.710;9.590;2022-11-09T00:28:11;10.05;;;5.30;;
72949;SDS011;64868;45.710;9.590;2022-11-09T00:30:37;15.07;;;6.32;;
72949;SDS011;64868;45.710;9.590;2022-11-09T00:33:02;12.50;;;5.68;;
72949;SDS011;64868;45.710;9.590;2022-11-09T00:35:27;13.02;;;5.78;;
72949;SDS011;64868;45.710;9.590;2022-11-09T00:37:53;10.93;;;5.10;;
72949;SDS011;64868;45.710;9.590;2022-11-09T00:40:18;13.05;;;5.88;;
72949;SDS011;64868;45.710;9.590;2022-11-09T00:42:44;10.70;;;5.20;;
72949;SDS011;64868;45.710;9.590;2022-11-09T00:45:09;12.40;;;5.40;;
72949;SDS011;64868;45.710;9.590;2022-11-09T00:47:34;11.02;;;4.57;;
72949;SDS011;64868;45.710;9.590;2022-11-09T00:50:18;11.05;;;4.43;;
72949;SDS011;64868;45.710;9.590;2022-11-09T00:52:43;10.23;;;4.63;;
72949;SDS011;64868;45.710;9.590;2022-11-09T00:55:08;9.60;;;4.60;;
72949;SDS011;64868;45.710;9.590;2022-11-09T00:57:34;10.25;;;4.97;;
72949;SDS011;64868;45.710;9.590;2022-11-09T00:59:59;9.55;;;4.15;;
72949;SDS011;64868;45.710;9.590;2022-11-09T01:02:24;13.17;;;5.10;;
72949;SDS011;64868;45.710;9.590;2022-11-09T01:04:49;11.98;;;4.53;;
72949;SDS011;64868;45.710;9.590;2022-11-09T01:07:15;10.90;;;4.80;;
72949;SDS011;64868;45.710;9.590;2022-11-09T01:09:40;9.40;;;4.30;;
72949;SDS011;64868;45.710;9.590;2022-11-09T01:12:05;9.80;;;4.10;;
72949;SDS011;64868;45.710;9.590;2022-11-09T01:14:30;8.52;;;3.78;;
72949;SDS011;64868;45.710;9.590;2022-11-09T01:16:56;9.57;;;3.90;;
72949;SDS011;64868;45.710;9.590;2022-11-09T01:19:21;9.48;;;4.35;;
72949;SDS011;64868;45.710;9.590;2022-11-09T01:21:46;8.80;;;4.20;;
72949;SDS011;64868;45.710;9.590;2022-11-09T01:24:12;9.32;;;3.90;;
72949;SDS011;64868;45.710;9.590;2022-11-09T01:26:37;9.80;;;4.18;;
72949;SDS011;64868;45.710;9.590;2022-11-09T01:29:02;10.20;;;3.90;;
72949;SDS011;64868;45.710;9.590;2022-11-09T01:31:27;9.30;;;3.72;;
72949;SDS011;64868;45.710;9.590;2022-11-09T01:33:53;8.47;;;3.80;;
72949;SDS011;64868;45.710;9.590;2022-11-09T01:36:22;9.85;;;4.10;;
72949;SDS011;64868;45.710;9.590;2022-11-09T01:41:17;8.93;;;4.13;;
72949;SDS011;64868;45.710;9.590;2022-11-09T01:48:38;7.67;;;3.63;;
72949;SDS011;64868;45.710;9.590;2022-11-09T01:51:49;9.30;;;3.75;;
72949;SDS011;64868;45.710;9.590;2022-11-09T01:53:50;8.10;;;3.25;;
72949;SDS011;64868;45.710;9.590;2022-11-09T01:56:17;8.43;;;3.50;;
72949;SDS011;64868;45.710;9.590;2022-11-09T01:58:58;10.07;;;3.55;;
72949;SDS011;64868;45.710;9.590;2022-11-09T02:01:24;8.95;;;3.83;;
72949;SDS011;64868;45.710;9.590;2022-11-09T02:04:12;9.20;;;3.70;;
72949;SDS011;64868;45.710;9.590;2022-11-09T02:06:35;9.88;;;4.05;;
72949;SDS011;64868;45.710;9.590;2022-11-09T02:09:03;11.35;;;4.15;;
72949;SDS011;64868;45.710;9.590;2022-11-09T02:11:32;9.02;;;4.05;;
72949;SDS011;64868;45.710;9.590;2022-11-09T02:16:42;7.63;;;3.53;;
72949;SDS011;64868;45.710;9.590;2022-11-09T02:19:08;9.13;;;3.90;;
72949;SDS011;64868;45.710;9.590;2022-11-09T02:21:34;9.10;;;3.92;;
72949;SDS011;64868;45.710;9.590;2022-11-09T02:23:59;7.00;;;3.10;;
72949;SDS011;64868;45.710;9.590;2022-11-09T02:26:28;7.53;;;3.25;;
72949;SDS011;64868;45.710;9.590;2022-11-09T02:28:55;7.15;;;3.00;;
72949;SDS011;64868;45.710;9.590;2022-11-09T02:31:21;6.70;;;2.83;;
72949;SDS011;64868;45.710;9.590;2022-11-09T02:33:54;7.28;;;3.40;;
72949;SDS011;64868;45.710;9.590;2022-11-09T02:36:21;9.18;;;3.40;;
72949;SDS011;64868;45.710;9.590;2022-11-09T02:38:47;7.45;;;3.47;;
72949;SDS011;64868;45.710;9.590;2022-11-09T02:41:12;8.77;;;3.10;;
72949;SDS011;64868;45.710;9.590;2022-11-09T02:43:38;6.88;;;2.63;;
72949;SDS011;64868;45.710;9.590;2022-11-09T02:46:04;6.93;;;2.95;;
72949;SDS011;64868;45.710;9.590;2022-11-09T02:48:29;7.78;;;3.13;;
72949;SDS011;64868;45.710;9.590;2022-11-09T02:50:54;8.23;;;2.30;;
72949;SDS011;64868;45.710;9.590;2022-11-09T02:53:20;6.83;;;2.80;;
72949;SDS011;64868;45.710;9.590;2022-11-09T02:55:45;7.82;;;3.00;;
72949;SDS011;64868;45.710;9.590;2022-11-09T02:58:10;8.90;;;3.73;;
72949;SDS011;64868;45.710;9.590;2022-11-09T03:00:35;10.47;;;3.93;;
72949;SDS011;64868;45.710;9.590;2022-11-09T03:05:44;9.25;;;3.90;;
72949;SDS011;64868;45.710;9.590;2022-11-09T03:08:10;11.90;;;4.30;;
72949;SDS011;64868;45.710;9.590;2022-11-09T03:10:35;10.80;;;4.03;;
72949;SDS011;64868;45.710;9.590;2022-11-09T03:13:00;9.97;;;3.77;;
72949;SDS011;64868;45.710;9.590;2022-11-09T03:15:25;8.73;;;3.70;;
72949;SDS011;64868;45.710;9.590;2022-11-09T03:17:51;9.30;;;3.63;;
72949;SDS011;64868;45.710;9.590;2022-11-09T03:23:00;9.15;;;3.58;;
72949;SDS011;64868;45.710;9.590;2022-11-09T03:28:09;9.27;;;3.85;;
72949;SDS011;64868;45.710;9.590;2022-11-09T03:30:34;7.83;;;3.70;;
72949;SDS011;64868;45.710;9.590;2022-11-09T03:33:00;8.77;;;3.53;;
72949;SDS011;64868;45.710;9.590;2022-11-09T03:35:26;11.00;;;4.10;;
72949;SDS011;64868;45.710;9.590;2022-11-09T03:37:52;8.80;;;3.80;;
72949;SDS011;64868;45.710;9.590;2022-11-09T03:40:17;7.63;;;3.85;;
72949;SDS011;64868;45.710;9.590;2022-11-09T03:42:46;8.38;;;3.53;;
72949;SDS011;64868;45.710;9.590;2022-11-09T03:45:12;10.13;;;5.47;;
72949;SDS011;64868;45.710;9.590;2022-11-09T03:47:44;10.25;;;4.45;;
72949;SDS011;64868;45.710;9.590;2022-11-09T03:50:10;12.93;;;6.13;;
72949;SDS011;64868;45.710;9.590;2022-11-09T03:52:36;15.38;;;8.02;;
72949;SDS011;64868;45.710;9.590;2022-11-09T03:55:01;19.75;;;10.23;;
72949;SDS011;64868;45.710;9.590;2022-11-09T04:02:54;18.08;;;10.05;;
72949;SDS011;64868;45.710;9.590;2022-11-09T04:05:20;17.95;;;9.75;;
72949;SDS011;64868;45.710;9.590;2022-11-09T04:07:46;17.90;;;9.65;;
72949;SDS011;64868;45.710;9.590;2022-11-09T04:10:11;17.88;;;8.82;;
72949;SDS011;64868;45.710;9.590;2022-11-09T04:12:36;21.07;;;11.10;;
72949;SDS011;64868;45.710;9.590;2022-11-09T04:15:02;18.67;;;8.90;;
72949;SDS011;64868;45.710;9.590;2022-11-09T04:17:27;15.02;;;6.93;;
72949;SDS011;64868;45.710;9.590;2022-11-09T04:19:52;11.87;;;5.10;;
72949;SDS011;64868;45.710;9.590;2022-11-09T04:22:17;8.93;;;4.53;;
72949;SDS011;64868;45.710;9.590;2022-11-09T04:24:43;11.00;;;4.38;;
72949;SDS011;64868;45.710;9.590;2022-11-09T04:27:08;8.93;;;4.27;;
72949;SDS011;64868;45.710;9.590;2022-11-09T04:29:33;10.27;;;4.72;;
72949;SDS011;64868;45.710;9.590;2022-11-09T04:31:58;9.95;;;4.65;;
72949;SDS011;64868;45.710;9.590;2022-11-09T04:34:24;9.17;;;4.30;;
72949;SDS011;64868;45.710;9.590;2022-11-09T04:36:49;8.45;;;4.18;;
72949;SDS011;64868;45.710;9.590;2022-11-09T04:39:32;13.05;;;4.35;;
72949;SDS011;64868;45.710;9.590;2022-11-09T04:42:16;8.60;;;4.15;;
72949;SDS011;64868;45.710;9.590;2022-11-09T04:44:41;9.77;;;4.28;;
72949;SDS011;64868;45.710;9.590;2022-11-09T04:47:07;9.57;;;4.60;;
72949;SDS011;64868;45.710;9.590;2022-11-09T04:49:32;8.57;;;4.00;;
72949;SDS011;64868;45.710;9.590;2022-11-09T04:51:57;8.87;;;4.30;;
72949;SDS011;64868;45.710;9.590;2022-11-09T04:54:22;9.97;;;4.17;;
72949;SDS011;64868;45.710;9.590;2022-11-09T04:56:48;11.02;;;5.07;;
72949;SDS011;64868;45.710;9.590;2022-11-09T04:59:13;15.73;;;7.20;;
72949;SDS011;64868;45.710;9.590;2022-11-09T05:01:38;11.48;;;6.00;;
72949;SDS011;64868;45.710;9.590;2022-11-09T05:04:03;12.88;;;7.22;;
72949;SDS011;64868;45.710;9.590;2022-11-09T05:06:29;13.18;;;7.10;;
72949;SDS011;64868;45.710;9.590;2022-11-09T05:09:12;14.82;;;6.78;;
72949;SDS011;64868;45.710;9.590;2022-11-09T05:14:22;13.93;;;7.70;;
72949;SDS011;64868;45.710;9.590;2022-11-09T05:16:47;17.87;;;9.27;;
72949;SDS011;64868;45.710;9.590;2022-11-09T05:19:12;17.13;;;10.17;;
72949;SDS011;64868;45.710;9.590;2022-11-09T05:21:37;17.40;;;9.37;;
72949;SDS011;64868;45.710;9.590;2022-11-09T05:24:02;21.37;;;9.80;;
72949;SDS011;64868;45.710;9.590;2022-11-09T05:26:29;20.13;;;9.10;;
72949;SDS011;64868;45.710;9.590;2022-11-09T05:28:55;27.65;;;9.85;;
72949;SDS011;64868;45.710;9.590;2022-11-09T05:31:21;23.48;;;10.00;;
72949;SDS011;64868;45.710;9.590;2022-11-09T05:34:05;23.27;;;11.30;;
72949;SDS011;64868;45.710;9.590;2022-11-09T05:36:31;26.75;;;12.15;;
72949;SDS011;64868;45.710;9.590;2022-11-09T05:38:58;20.30;;;11.25;;
72949;SDS011;64868;45.710;9.590;2022-11-09T05:41:23;24.55;;;12.93;;
72949;SDS011;64868;45.710;9.590;2022-11-09T05:43:48;18.00;;;10.32;;
72949;SDS011;64868;45.710;9.590;2022-11-09T05:46:14;18.20;;;9.93;;
72949;SDS011;64868;45.710;9.590;2022-11-09T05:48:40;21.98;;;10.85;;
72949;SDS011;64868;45.710;9.590;2022-11-09T05:51:06;24.38;;;12.90;;
72949;SDS011;64868;45.710;9.590;2022-11-09T05:53:32;19.67;;;11.82;;
72949;SDS011;64868;45.710;9.590;2022-11-09T05:56:01;24.55;;;12.95;;
72949;SDS011;64868;45.710;9.590;2022-11-09T05:58:26;18.50;;;11.50;;
72949;SDS011;64868;45.710;9.590;2022-11-09T06:00:51;22.80;;;12.83;;
72949;SDS011;64868;45.710;9.590;2022-11-09T06:03:17;19.83;;;12.10;;
72949;SDS011;64868;45.710;9.590;2022-11-09T06:05:42;22.90;;;11.37;;
72949;SDS011;64868;45.710;9.590;2022-11-09T06:08:11;21.80;;;11.90;;
72949;SDS011;64868;45.710;9.590;2022-11-09T06:10:37;21.05;;;11.73;;
72949;SDS011;64868;45.710;9.590;2022-11-09T06:13:02;20.42;;;11.23;;
72949;SDS011;64868;45.710;9.590;2022-11-09T06:15:28;22.37;;;12.00;;
72949;SDS011;64868;45.710;9.590;2022-11-09T06:17:53;22.83;;;12.38;;
72949;SDS011;64868;45.710;9.590;2022-11-09T06:20:37;19.73;;;11.40;;
72949;SDS011;64868;45.710;9.590;2022-11-09T06:23:02;19.60;;;11.40;;
72949;SDS011;64868;45.710;9.590;2022-11-09T06:25:28;23.40;;;12.70;;
72949;SDS011;64868;45.710;9.590;2022-11-09T06:27:54;22.33;;;12.25;;
72949;SDS011;64868;45.710;9.590;2022-11-09T06:30:20;24.63;;;12.32;;
72949;SDS011;64868;45.710;9.590;2022-11-09T06:32:45;26.80;;;11.80;;
72949;SDS011;64868;45.710;9.590;2022-11-09T06:35:10;19.08;;;10.98;;
72949;SDS011;64868;45.710;9.590;2022-11-09T06:37:36;18.52;;;11.38;;
72949;SDS011;64868;45.710;9.590;2022-11-09T06:40:01;24.73;;;13.93;;
72949;SDS011;64868;45.710;9.590;2022-11-09T06:42:26;23.63;;;13.93;;
72949;SDS011;64868;45.710;9.590;2022-11-09T06:44:52;20.35;;;12.32;;
72949;SDS011;64868;45.710;9.590;2022-11-09T06:47:17;25.10;;;14.33;;
72949;SDS011;64868;45.710;9.590;2022-11-09T06:49:42;22.87;;;12.70;;
72949;SDS011;64868;45.710;9.590;2022-11-09T06:52:07;26.47;;;13.53;;
72949;SDS011;64868;45.710;9.590;2022-11-09T06:54:33;25.97;;;14.77;;
72949;SDS011;64868;45.710;9.590;2022-11-09T06:56:58;26.05;;;14.93;;
72949;SDS011;64868;45.710;9.590;2022-11-09T06:59:23;22.52;;;14.40;;
72949;SDS011;64868;45.710;9.590;2022-11-09T07:01:49;26.63;;;14.40;;
72949;SDS011;64868;45.710;9.590;2022-11-09T07:04:14;25.73;;;14.43;;
72949;SDS011;64868;45.710;9.590;2022-11-09T07:06:40;27.10;;;15.27;;
72949;SDS011;64868;45.710;9.590;2022-11-09T07:09:06;27.85;;;15.38;;
72949;SDS011;64868;45.710;9.590;2022-11-09T07:11:31;26.65;;;14.60;;
72949;SDS011;64868;45.710;9.590;2022-11-09T07:13:57;26.23;;;13.80;;
72949;SDS011;64868;45.710;9.590;2022-11-09T07:16:22;25.60;;;14.60;;
72949;SDS011;64868;45.710;9.590;2022-11-09T07:18:47;24.88;;;13.52;;
72949;SDS011;64868;45.710;9.590;2022-11-09T07:21:12;28.88;;;16.02;;
72949;SDS011;64868;45.710;9.590;2022-11-09T07:23:38;31.88;;;16.52;;
72949;SDS011;64868;45.710;9.590;2022-11-09T07:26:03;31.50;;;16.42;;
72949;SDS011;64868;45.710;9.590;2022-11-09T07:28:29;31.73;;;16.10;;
72949;SDS011;64868;45.710;9.590;2022-11-09T07:30:58;27.50;;;16.25;;
72949;SDS011;64868;45.710;9.590;2022-11-09T07:33:23;26.17;;;15.80;;
72949;SDS011;64868;45.710;9.590;2022-11-09T07:35:49;25.73;;;15.13;;
72949;SDS011;64868;45.710;9.590;2022-11-09T07:38:14;25.70;;;15.63;;
72949;SDS011;64868;45.710;9.590;2022-11-09T07:40:40;30.63;;;15.40;;
72949;SDS011;64868;45.710;9.590;2022-11-09T07:43:05;25.23;;;13.90;;
72949;SDS011;64868;45.710;9.590;2022-11-09T07:45:31;29.10;;;16.45;;
72949;SDS011;64868;45.710;9.590;2022-11-09T07:48:01;26.95;;;15.57;;
72949;SDS011;64868;45.710;9.590;2022-11-09T07:50:26;24.33;;;14.43;;
72949;SDS011;64868;45.710;9.590;2022-11-09T07:52:53;25.52;;;13.52;;
72949;SDS011;64868;45.710;9.590;2022-11-09T07:55:18;23.42;;;14.20;;
72949;SDS011;64868;45.710;9.590;2022-11-09T07:57:43;24.40;;;13.07;;
72949;SDS011;64868;45.710;9.590;2022-11-09T08:00:11;27.60;;;14.07;;
72949;SDS011;64868;45.710;9.590;2022-11-09T08:02:36;25.35;;;13.75;;
72949;SDS011;64868;45.710;9.590;2022-11-09T08:05:01;46.40;;;21.03;;
72949;SDS011;64868;45.710;9.590;2022-11-09T08:07:27;32.20;;;17.83;;
72949;SDS011;64868;45.710;9.590;2022-11-09T08:12:36;36.25;;;17.67;;
72949;SDS011;64868;45.710;9.590;2022-11-09T08:15:01;29.20;;;16.55;;
72949;SDS011;64868;45.710;9.590;2022-11-09T08:17:26;27.88;;;15.50;;
72949;SDS011;64868;45.710;9.590;2022-11-09T08:19:51;28.53;;;15.50;;
72949;SDS011;64868;45.710;9.590;2022-11-09T08:22:17;32.90;;;15.43;;
72949;SDS011;64868;45.710;9.590;2022-11-09T08:24:42;30.50;;;15.73;;
72949;SDS011;64868;45.710;9.590;2022-11-09T08:27:07;29.90;;;16.60;;
72949;SDS011;64868;45.710;9.590;2022-11-09T08:29:32;27.90;;;17.98;;
72949;SDS011;64868;45.710;9.590;2022-11-09T08:31:58;29.37;;;17.30;;
72949;SDS011;64868;45.710;9.590;2022-11-09T08:34:23;30.35;;;15.82;;
72949;SDS011;64868;45.710;9.590;2022-11-09T08:36:48;26.08;;;15.68;;
72949;SDS011;64868;45.710;9.590;2022-11-09T08:39:13;28.33;;;15.77;;
72949;SDS011;64868;45.710;9.590;2022-11-09T08:41:39;27.20;;;17.37;;
72949;SDS011;64868;45.710;9.590;2022-11-09T08:44:04;29.02;;;18.48;;
72949;SDS011;64868;45.710;9.590;2022-11-09T08:46:29;27.45;;;16.33;;
72949;SDS011;64868;45.710;9.590;2022-11-09T08:48:54;33.60;;;17.83;;
72949;SDS011;64868;45.710;9.590;2022-11-09T08:51:20;31.33;;;16.73;;
72949;SDS011;64868;45.710;9.590;2022-11-09T08:53:45;33.47;;;17.63;;
72949;SDS011;64868;45.710;9.590;2022-11-09T08:56:10;30.35;;;17.38;;
72949;SDS011;64868;45.710;9.590;2022-11-09T08:58:37;33.45;;;19.00;;
72949;SDS011;64868;45.710;9.590;2022-11-09T09:01:06;30.65;;;17.13;;
72949;SDS011;64868;45.710;9.590;2022-11-09T09:03:32;29.42;;;16.80;;
72949;SDS011;64868;45.710;9.590;2022-11-09T09:05:57;28.75;;;16.33;;
72949;SDS011;64868;45.710;9.590;2022-11-09T09:08:26;32.50;;;17.10;;
72949;SDS011;64868;45.710;9.590;2022-11-09T09:10:51;30.00;;;17.67;;
72949;SDS011;64868;45.710;9.590;2022-11-09T09:13:16;28.63;;;16.63;;
72949;SDS011;64868;45.710;9.590;2022-11-09T09:15:43;28.92;;;16.38;;
72949;SDS011;64868;45.710;9.590;2022-11-09T09:18:08;30.50;;;17.77;;
72949;SDS011;64868;45.710;9.590;2022-11-09T09:23:18;30.33;;;18.42;;
72949;SDS011;64868;45.710;9.590;2022-11-09T09:25:43;29.23;;;16.60;;
72949;SDS011;64868;45.710;9.590;2022-11-09T09:28:08;34.45;;;17.35;;
72949;SDS011;64868;45.710;9.590;2022-11-09T09:30:34;28.00;;;16.73;;
72949;SDS011;64868;45.710;9.590;2022-11-09T09:32:59;27.70;;;17.02;;
72949;SDS011;64868;45.710;9.590;2022-11-09T09:35:25;25.95;;;16.85;;
72949;SDS011;64868;45.710;9.590;2022-11-09T09:37:50;26.95;;;17.08;;
72949;SDS011;64868;45.710;9.590;2022-11-09T09:40:29;27.07;;;16.00;;
72949;SDS011;64868;45.710;9.590;2022-11-09T09:42:55;27.88;;;17.92;;
72949;SDS011;64868;45.710;9.590;2022-11-09T09:45:22;30.83;;;18.67;;
72949;SDS011;64868;45.710;9.590;2022-11-09T09:50:46;32.25;;;19.15;;
72949;SDS011;64868;45.710;9.590;2022-11-09T09:53:32;30.45;;;19.60;;
72949;SDS011;64868;45.710;9.590;2022-11-09T09:56:01;26.88;;;18.75;;
72949;SDS011;64868;45.710;9.590;2022-11-09T09:58:29;28.92;;;18.50;;
72949;SDS011;64868;45.710;9.590;2022-11-09T10:00:56;32.22;;;18.38;;
72949;SDS011;64868;45.710;9.590;2022-11-09T10:03:41;30.92;;;18.83;;
72949;SDS011;64868;45.710;9.590;2022-11-09T10:14:22;26.40;;;16.55;;
72949;SDS011;64868;45.710;9.590;2022-11-09T10:19:44;49.10;;;28.52;;
72949;SDS011;64868;45.710;9.590;2022-11-09T10:29:52;39.28;;;20.98;;
72949;SDS011;64868;45.710;9.590;2022-11-09T10:32:18;48.75;;;26.38;;
72949;SDS011;64868;45.710;9.590;2022-11-09T10:34:54;41.97;;;24.50;;
72949;SDS011;64868;45.710;9.590;2022-11-09T10:39:46;31.43;;;19.93;;
72949;SDS011;64868;45.710;9.590;2022-11-09T10:42:13;28.15;;;18.75;;
72949;SDS011;64868;45.710;9.590;2022-11-09T10:44:39;29.20;;;18.23;;
72949;SDS011;64868;45.710;9.590;2022-11-09T10:47:23;28.50;;;17.65;;
72949;SDS011;64868;45.710;9.590;2022-11-09T10:50:04;31.90;;;18.95;;
72949;SDS011;64868;45.710;9.590;2022-11-09T10:52:31;32.28;;;19.42;;
72949;SDS011;64868;45.710;9.590;2022-11-09T10:55:20;31.30;;;19.35;;
72949;SDS011;64868;45.710;9.590;2022-11-09T11:00:15;30.25;;;18.58;;
72949;SDS011;64868;45.710;9.590;2022-11-09T11:05:25;29.75;;;18.73;;
72949;SDS011;64868;45.710;9.590;2022-11-09T11:07:51;31.92;;;19.45;;
72949;SDS011;64868;45.710;9.590;2022-11-09T11:15:23;33.15;;;20.17;;
72949;SDS011;64868;45.710;9.590;2022-11-09T11:17:49;32.80;;;20.52;;
72949;SDS011;64868;45.710;9.590;2022-11-09T11:22:42;30.83;;;20.17;;
72949;SDS011;64868;45.710;9.590;2022-11-09T11:25:18;39.40;;;21.90;;
72949;SDS011;64868;45.710;9.590;2022-11-09T11:27:47;32.67;;;20.80;;
72949;SDS011;64868;45.710;9.590;2022-11-09T11:30:15;31.02;;;19.83;;
72949;SDS011;64868;45.710;9.590;2022-11-09T11:32:42;37.75;;;22.55;;
72949;SDS011;64868;45.710;9.590;2022-11-09T11:40:41;33.28;;;21.52;;
72949;SDS011;64868;45.710;9.590;2022-11-09T11:43:22;33.33;;;21.77;;
72949;SDS011;64868;45.710;9.590;2022-11-09T12:09:26;37.45;;;23.95;;
72949;SDS011;64868;45.710;9.590;2022-11-09T12:17:20;31.13;;;21.02;;
72949;SDS011;64868;45.710;9.590;2022-11-09T12:33:04;36.53;;;23.52;;
72949;SDS011;64868;45.710;9.590;2022-11-09T12:35:32;31.58;;;21.58;;
72949;SDS011;64868;45.710;9.590;2022-11-09T12:40:33;32.20;;;20.60;;
72949;SDS011;64868;45.710;9.590;2022-11-09T12:45:37;29.35;;;20.90;;
72949;SDS011;64868;45.710;9.590;2022-11-09T12:48:08;31.67;;;20.83;;
72949;SDS011;64868;45.710;9.590;2022-11-09T12:50:36;33.28;;;21.00;;
72949;SDS011;64868;45.710;9.590;2022-11-09T12:53:02;27.77;;;19.88;;
72949;SDS011;64868;45.710;9.590;2022-11-09T12:58:20;34.63;;;22.88;;
72949;SDS011;64868;45.710;9.590;2022-11-09T13:00:46;37.75;;;24.83;;
72949;SDS011;64868;45.710;9.590;2022-11-09T13:03:14;36.53;;;24.02;;
72949;SDS011;64868;45.710;9.590;2022-11-09T13:05:42;34.22;;;23.75;;
72949;SDS011;64868;45.710;9.590;2022-11-09T13:08:19;37.22;;;25.58;;
72949;SDS011;64868;45.710;9.590;2022-11-09T13:10:48;38.00;;;25.38;;
72949;SDS011;64868;45.710;9.590;2022-11-09T13:13:31;37.67;;;25.25;;
72949;SDS011;64868;45.710;9.590;2022-11-09T13:16:03;33.88;;;23.27;;
72949;SDS011;64868;45.710;9.590;2022-11-09T13:20:54;36.13;;;24.63;;
72949;SDS011;64868;45.710;9.590;2022-11-09T13:23:33;35.03;;;24.02;;
72949;SDS011;64868;45.710;9.590;2022-11-09T13:26:00;46.20;;;29.27;;
72949;SDS011;64868;45.710;9.590;2022-11-09T13:30:57;42.22;;;27.40;;
72949;SDS011;64868;45.710;9.590;2022-11-09T13:33:27;42.22;;;26.65;;
72949;SDS011;64868;45.710;9.590;2022-11-09T13:38:20;39.10;;;25.83;;
72949;SDS011;64868;45.710;9.590;2022-11-09T13:40:46;52.03;;;35.13;;
72949;SDS011;64868;45.710;9.590;2022-11-09T13:46:03;47.67;;;31.23;;
72949;SDS011;64868;45.710;9.590;2022-11-09T13:50:57;56.00;;;37.08;;
72949;SDS011;64868;45.710;9.590;2022-11-09T13:58:44;40.25;;;28.95;;
72949;SDS011;64868;45.710;9.590;2022-11-09T14:04:17;35.85;;;25.80;;
72949;SDS011;64868;45.710;9.590;2022-11-09T14:06:43;35.97;;;24.83;;
72949;SDS011;64868;45.710;9.590;2022-11-09T14:09:10;34.60;;;24.10;;
72949;SDS011;64868;45.710;9.590;2022-11-09T14:12:16;40.53;;;24.67;;
72949;SDS011;64868;45.710;9.590;2022-11-09T14:22:39;39.80;;;26.35;;
72949;SDS011;64868;45.710;9.590;2022-11-09T14:25:23;38.65;;;26.52;;
72949;SDS011;64868;45.710;9.590;2022-11-09T14:28:21;37.47;;;25.23;;
72949;SDS011;64868;45.710;9.590;2022-11-09T14:30:46;44.17;;;26.60;;
72949;SDS011;64868;45.710;9.590;2022-11-09T14:35:46;36.17;;;24.23;;
72949;SDS011;64868;45.710;9.590;2022-11-09T14:38:18;35.28;;;23.42;;
72949;SDS011;64868;45.710;9.590;2022-11-09T14:40:45;35.55;;;25.08;;
72949;SDS011;64868;45.710;9.590;2022-11-09T14:43:42;42.10;;;27.70;;
72949;SDS011;64868;45.710;9.590;2022-11-09T14:46:16;45.60;;;28.42;;
72949;SDS011;64868;45.710;9.590;2022-11-09T14:48:48;43.22;;;26.77;;
72949;SDS011;64868;45.710;9.590;2022-11-09T14:53:59;43.35;;;27.52;;
72949;SDS011;64868;45.710;9.590;2022-11-09T14:56:24;38.90;;;26.77;;
72949;SDS011;64868;45.710;9.590;2022-11-09T14:58:50;44.45;;;29.20;;
72949;SDS011;64868;45.710;9.590;2022-11-09T15:03:41;48.78;;;31.27;;
72949;SDS011;64868;45.710;9.590;2022-11-09T15:06:07;49.97;;;31.55;;
72949;SDS011;64868;45.710;9.590;2022-11-09T15:08:33;44.03;;;30.25;;
72949;SDS011;64868;45.710;9.590;2022-11-09T15:11:19;42.42;;;29.50;;
72949;SDS011;64868;45.710;9.590;2022-11-09T15:13:45;38.35;;;25.35;;
72949;SDS011;64868;45.710;9.590;2022-11-09T15:16:17;35.78;;;25.08;;
72949;SDS011;64868;45.710;9.590;2022-11-09T15:18:44;43.00;;;26.25;;
72949;SDS011;64868;45.710;9.590;2022-11-09T15:23:41;37.60;;;25.58;;
72949;SDS011;64868;45.710;9.590;2022-11-09T15:26:42;43.20;;;29.13;;
72949;SDS011;64868;45.710;9.590;2022-11-09T15:28:59;46.05;;;31.13;;
72949;SDS011;64868;45.710;9.590;2022-11-09T15:34:43;56.40;;;34.05;;
72949;SDS011;64868;45.710;9.590;2022-11-09T15:37:00;50.05;;;30.55;;
72949;SDS011;64868;45.710;9.590;2022-11-09T15:39:25;51.73;;;30.97;;
72949;SDS011;64868;45.710;9.590;2022-11-09T15:41:51;48.03;;;27.63;;
72949;SDS011;64868;45.710;9.590;2022-11-09T15:44:16;47.55;;;31.00;;
72949;SDS011;64868;45.710;9.590;2022-11-09T15:46:48;45.08;;;30.90;;
72949;SDS011;64868;45.710;9.590;2022-11-09T15:49:15;42.45;;;27.73;;
72949;SDS011;64868;45.710;9.590;2022-11-09T15:51:41;39.03;;;26.23;;
72949;SDS011;64868;45.710;9.590;2022-11-09T15:54:06;42.20;;;27.70;;
72949;SDS011;64868;45.710;9.590;2022-11-09T15:56:31;44.53;;;29.48;;
72949;SDS011;64868;45.710;9.590;2022-11-09T15:59:19;48.92;;;31.50;;
72949;SDS011;64868;45.710;9.590;2022-11-09T16:01:45;40.58;;;29.80;;
72949;SDS011;64868;45.710;9.590;2022-11-09T16:04:10;41.55;;;29.60;;
72949;SDS011;64868;45.710;9.590;2022-11-09T16:09:19;42.50;;;29.17;;
72949;SDS011;64868;45.710;9.590;2022-11-09T16:11:47;45.33;;;30.90;;
72949;SDS011;64868;45.710;9.590;2022-11-09T16:14:12;42.80;;;27.95;;
72949;SDS011;64868;45.710;9.590;2022-11-09T16:16:38;41.45;;;28.27;;
72949;SDS011;64868;45.710;9.590;2022-11-09T16:19:04;45.47;;;31.45;;
72949;SDS011;64868;45.710;9.590;2022-11-09T16:21:50;44.90;;;30.83;;
72949;SDS011;64868;45.710;9.590;2022-11-09T16:24:15;42.80;;;29.02;;
72949;SDS011;64868;45.710;9.590;2022-11-09T16:26:40;46.08;;;31.52;;
72949;SDS011;64868;45.710;9.590;2022-11-09T16:29:06;50.35;;;30.38;;
72949;SDS011;64868;45.710;9.590;2022-11-09T16:31:31;47.05;;;31.90;;
72949;SDS011;64868;45.710;9.590;2022-11-09T16:33:56;48.53;;;32.47;;
72949;SDS011;64868;45.710;9.590;2022-11-09T16:36:22;52.35;;;33.35;;
72949;SDS011;64868;45.710;9.590;2022-11-09T16:38:49;45.97;;;30.35;;
72949;SDS011;64868;45.710;9.590;2022-11-09T16:41:15;44.45;;;31.33;;
72949;SDS011;64868;45.710;9.590;2022-11-09T16:43:42;47.17;;;31.65;;
72949;SDS011;64868;45.710;9.590;2022-11-09T16:46:08;54.85;;;34.92;;
72949;SDS011;64868;45.710;9.590;2022-11-09T16:48:34;48.78;;;31.92;;
72949;SDS011;64868;45.710;9.590;2022-11-09T16:51:00;51.25;;;34.50;;
72949;SDS011;64868;45.710;9.590;2022-11-09T16:53:25;44.33;;;30.27;;
72949;SDS011;64868;45.710;9.590;2022-11-09T16:55:51;47.58;;;31.70;;
72949;SDS011;64868;45.710;9.590;2022-11-09T16:58:16;45.87;;;32.03;;
72949;SDS011;64868;45.710;9.590;2022-11-09T17:00:42;45.40;;;30.52;;
72949;SDS011;64868;45.710;9.590;2022-11-09T17:03:08;51.55;;;32.13;;
72949;SDS011;64868;45.710;9.590;2022-11-09T17:05:33;54.63;;;33.83;;
72949;SDS011;64868;45.710;9.590;2022-11-09T17:07:58;52.30;;;34.60;;
72949;SDS011;64868;45.710;9.590;2022-11-09T17:10:24;47.40;;;33.03;;
72949;SDS011;64868;45.710;9.590;2022-11-09T17:12:49;49.25;;;33.42;;
72949;SDS011;64868;45.710;9.590;2022-11-09T17:15:14;48.33;;;33.50;;
72949;SDS011;64868;45.710;9.590;2022-11-09T17:17:41;45.25;;;31.13;;
72949;SDS011;64868;45.710;9.590;2022-11-09T17:20:06;43.30;;;30.05;;